Terminal Aerodrome Forecast
Issued by NWS Bismarck, ND

Home | Current Version | Previous Version | Graphics & Text | Print | Product List | Glossary On
Versions: 1 2 3 4 5 6 7 8 9 10 11 12 13 14
083
FTUS43 KBIS 221122
TAFBIS
TAF
KBIS 221122Z 2212/2312 30009KT P6SM SKC
     FM221700 30013G21KT P6SM FEW100 FEW250
     FM230000 33017G25KT P6SM SKC
     FM230600 36005KT P6SM SKC=

USA.gov is the U.S. government's official web portal to all federal, state and local government web resources and services.